createdAt,value
2022-11-29T00:00:31.213Z,960.51
2022-11-29T00:00:49.896Z,960.51
2022-11-29T00:01:20.849Z,960.82
2022-11-29T00:01:51.934Z,960.82
2022-11-29T00:02:22.945Z,960.62
2022-11-29T00:02:53.963Z,960.62
2022-11-29T00:03:24.921Z,960.72
2022-11-29T00:03:56.860Z,960.72
2022-11-29T00:04:26.848Z,960.62
2022-11-29T00:04:57.826Z,960.62
2022-11-29T00:05:28.895Z,960.72
2022-11-29T00:05:59.821Z,960.72
2022-11-29T00:06:30.856Z,960.62
2022-11-29T00:07:01.902Z,960.62
2022-11-29T00:07:32.865Z,960.72
2022-11-29T00:08:03.889Z,960.72
2022-11-29T00:08:34.852Z,960.72
2022-11-29T00:09:06.895Z,960.72
2022-11-29T00:09:36.837Z,960.72
2022-11-29T00:10:07.936Z,960.72
2022-11-29T00:10:38.846Z,960.72
2022-11-29T00:11:09.842Z,960.62
2022-11-29T00:11:40.891Z,960.62
2022-11-29T00:12:11.929Z,960.62
2022-11-29T00:12:42.820Z,960.62
2022-11-29T00:13:13.842Z,960.62
2022-11-29T00:13:44.848Z,960.62
2022-11-29T00:14:16.836Z,960.62
2022-11-29T00:14:47.111Z,960.62
2022-11-29T00:15:30.147Z,960.62
2022-11-29T00:15:48.832Z,960.62
2022-11-29T00:16:19.903Z,960.72
2022-11-29T00:16:50.885Z,960.72
2022-11-29T00:17:21.898Z,960.51
2022-11-29T00:17:52.935Z,960.51
2022-11-29T00:18:23.861Z,960.72
2022-11-29T00:18:54.832Z,960.72
2022-11-29T00:19:26.847Z,960.62
2022-11-29T00:19:56.898Z,960.62
2022-11-29T00:20:27.859Z,960.72
2022-11-29T00:20:58.841Z,960.72
2022-11-29T00:21:29.832Z,960.51
2022-11-29T00:22:01.072Z,960.51
2022-11-29T00:22:31.859Z,960.51
2022-11-29T00:23:02.936Z,960.62
2022-11-29T00:23:33.865Z,960.62
2022-11-29T00:24:04.913Z,960.51
2022-11-29T00:24:36.879Z,960.51
2022-11-29T00:25:06.842Z,960.62
2022-11-29T00:25:37.885Z,960.62
2022-11-29T00:26:08.886Z,960.62
2022-11-29T00:26:39.852Z,960.62
2022-11-29T00:27:10.831Z,960.51
2022-11-29T00:27:41.878Z,960.51
2022-11-29T00:28:12.890Z,960.72
2022-11-29T00:28:43.825Z,960.72
2022-11-29T00:29:14.868Z,960.51
2022-11-29T00:29:46.830Z,960.51
2022-11-29T00:30:29.333Z,960.31
2022-11-29T00:30:48.021Z,960.31
2022-11-29T00:31:19.120Z,960.62
2022-11-29T00:31:49.927Z,960.62
2022-11-29T00:32:23.045Z,960.51
2022-11-29T00:32:52.029Z,960.51
2022-11-29T00:33:22.869Z,960.51
2022-11-29T00:33:54.030Z,960.51
2022-11-29T00:34:24.962Z,960.41
2022-11-29T00:34:59.526Z,960.41
2022-11-29T00:35:29.994Z,960.62
2022-11-29T00:35:57.835Z,960.62
2022-11-29T00:36:28.875Z,960.21
2022-11-29T00:36:59.827Z,960.21
2022-11-29T00:37:30.840Z,960.41
2022-11-29T00:38:01.878Z,960.41
2022-11-29T00:38:32.832Z,960.62
2022-11-29T00:39:03.938Z,960.51
2022-11-29T00:39:34.851Z,960.51
2022-11-29T00:40:06.847Z,960.82
2022-11-29T00:40:36.814Z,960.82
2022-11-29T00:41:07.914Z,960.62
2022-11-29T00:41:38.825Z,960.62
2022-11-29T00:42:09.847Z,960.62
2022-11-29T00:42:40.811Z,960.62
2022-11-29T00:43:11.888Z,960.72
2022-11-29T00:43:42.845Z,960.72
2022-11-29T00:44:19.725Z,960.51
2022-11-29T00:44:45.173Z,960.51
2022-11-29T00:45:29.154Z,960.41
2022-11-29T00:45:46.858Z,960.41
2022-11-29T00:46:17.887Z,960.51
2022-11-29T00:46:48.881Z,960.51
2022-11-29T00:47:19.845Z,960.51
2022-11-29T00:47:50.817Z,960.51
2022-11-29T00:48:21.884Z,960.51
2022-11-29T00:48:52.834Z,960.51
2022-11-29T00:49:23.835Z,960.41
2022-11-29T00:49:54.847Z,960.41
2022-11-29T00:50:26.846Z,960.41
2022-11-29T00:50:56.842Z,960.41
2022-11-29T00:51:27.873Z,960.51
2022-11-29T00:51:58.826Z,960.51
2022-11-29T00:52:29.812Z,960.51
2022-11-29T00:53:00.961Z,960.51
2022-11-29T00:53:31.833Z,960.41
2022-11-29T00:54:02.936Z,960.31
2022-11-29T00:54:33.891Z,960.31
2022-11-29T00:55:04.841Z,960.51
2022-11-29T00:55:36.856Z,960.51
2022-11-29T00:56:06.820Z,960.62
2022-11-29T00:56:37.836Z,960.62
2022-11-29T00:57:08.837Z,960.62
2022-11-29T00:57:39.819Z,960.62
2022-11-29T00:58:11.069Z,960.51
2022-11-29T00:58:41.934Z,960.51
2022-11-29T00:59:12.807Z,960.41
2022-11-29T00:59:43.818Z,960.41
2022-11-29T01:00:27.129Z,960.62
2022-11-29T01:00:46.824Z,960.62
2022-11-29T01:01:16.882Z,960.51
2022-11-29T01:01:47.886Z,960.51
2022-11-29T01:02:18.849Z,960.62
2022-11-29T01:02:49.875Z,960.62
2022-11-29T01:03:20.830Z,960.51
2022-11-29T01:03:51.838Z,960.51
2022-11-29T01:04:22.822Z,960.62
2022-11-29T01:04:53.846Z,960.62
2022-11-29T01:05:24.867Z,960.62
2022-11-29T01:05:56.841Z,960.62
2022-11-29T01:06:26.833Z,960.41
2022-11-29T01:06:57.822Z,960.41
2022-11-29T01:07:28.917Z,960.51
2022-11-29T01:07:59.818Z,960.51
2022-11-29T01:08:30.836Z,960.41
2022-11-29T01:09:01.899Z,960.41
2022-11-29T01:09:32.823Z,960.72
2022-11-29T01:10:03.897Z,960.62
2022-11-29T01:10:34.822Z,960.62
2022-11-29T01:11:06.831Z,960.51
2022-11-29T01:11:36.913Z,960.51
2022-11-29T01:12:07.846Z,960.62
2022-11-29T01:12:38.829Z,960.62
2022-11-29T01:13:09.976Z,960.72
2022-11-29T01:13:40.808Z,960.72
2022-11-29T01:14:11.847Z,960.62
2022-11-29T01:14:43.033Z,960.62
2022-11-29T01:15:26.245Z,960.51
2022-11-29T01:15:44.879Z,960.51
2022-11-29T01:16:16.903Z,960.62
2022-11-29T01:16:46.927Z,960.62
2022-11-29T01:17:17.840Z,960.51
2022-11-29T01:17:48.820Z,960.51
2022-11-29T01:18:19.825Z,960.62
2022-11-29T01:18:50.823Z,960.62
2022-11-29T01:19:26.825Z,960.51
2022-11-29T01:19:52.855Z,960.51
2022-11-29T01:20:23.809Z,960.41
2022-11-29T01:20:54.872Z,960.41
2022-11-29T01:21:27.011Z,960.41
2022-11-29T01:21:56.813Z,960.41
2022-11-29T01:22:28.054Z,960.62
2022-11-29T01:22:58.811Z,960.62
2022-11-29T01:23:29.811Z,960.82
2022-11-29T01:24:01.017Z,960.82
2022-11-29T01:24:31.832Z,960.41
2022-11-29T01:25:02.942Z,960.41
2022-11-29T01:25:33.821Z,960.41
2022-11-29T01:26:04.815Z,960.41
2022-11-29T01:26:36.813Z,960.41
2022-11-29T01:27:06.850Z,960.62
2022-11-29T01:27:37.870Z,960.62
2022-11-29T01:28:08.827Z,960.31
2022-11-29T01:28:39.805Z,960.31
2022-11-29T01:29:10.855Z,960.51
2022-11-29T01:29:41.898Z,960.51
2022-11-29T01:30:25.210Z,960.62
2022-11-29T01:30:44.017Z,960.62
2022-11-29T01:31:14.947Z,960.62
2022-11-29T01:31:46.805Z,960.62
2022-11-29T01:32:16.833Z,960.51
2022-11-29T01:32:47.878Z,960.51
2022-11-29T01:33:18.969Z,960.51
2022-11-29T01:33:49.807Z,960.51
2022-11-29T01:34:20.884Z,960.62
2022-11-29T01:34:54.148Z,960.62
2022-11-29T01:35:25.148Z,960.51
2022-11-29T01:35:53.845Z,960.51
2022-11-29T01:36:24.866Z,960.41
2022-11-29T01:36:56.873Z,960.41
2022-11-29T01:37:26.830Z,960.51
2022-11-29T01:37:57.823Z,960.51
2022-11-29T01:38:28.813Z,960.41
2022-11-29T01:38:59.828Z,960.41
2022-11-29T01:39:30.799Z,960.51
2022-11-29T01:40:01.898Z,960.51
2022-11-29T01:40:32.831Z,960.62
2022-11-29T01:41:03.860Z,960.31
2022-11-29T01:41:34.849Z,960.31
2022-11-29T01:42:06.808Z,960.72
2022-11-29T01:42:36.802Z,960.72
2022-11-29T01:43:07.822Z,960.62
2022-11-29T01:43:38.836Z,960.62
2022-11-29T01:44:09.880Z,960.72
2022-11-29T01:44:40.828Z,960.72
2022-11-29T01:45:24.236Z,960.72
2022-11-29T01:45:42.817Z,960.72
2022-11-29T01:46:13.934Z,960.62
2022-11-29T01:46:44.800Z,960.62
2022-11-29T01:47:16.799Z,960.62
2022-11-29T01:47:46.857Z,960.62
2022-11-29T01:48:17.803Z,960.51
2022-11-29T01:48:48.813Z,960.51
2022-11-29T01:49:19.864Z,960.51
2022-11-29T01:49:50.798Z,960.51
2022-11-29T01:50:21.834Z,960.62
2022-11-29T01:50:52.821Z,960.62
2022-11-29T01:51:23.832Z,960.31
2022-11-29T01:51:54.814Z,960.31
2022-11-29T01:52:26.819Z,960.51
2022-11-29T01:52:56.839Z,960.51
2022-11-29T01:53:27.873Z,960.62
2022-11-29T01:53:58.828Z,960.62
2022-11-29T01:54:29.799Z,960.62
2022-11-29T01:55:00.977Z,960.62
2022-11-29T01:55:31.885Z,960.51
2022-11-29T01:56:02.962Z,960.62
2022-11-29T01:56:33.797Z,960.62
2022-11-29T01:57:04.873Z,960.41
2022-11-29T01:57:36.824Z,960.41
2022-11-29T01:58:06.818Z,960.51
2022-11-29T01:58:37.831Z,960.51
2022-11-29T01:59:08.860Z,960.51
2022-11-29T01:59:39.823Z,960.51
2022-11-29T02:00:23.265Z,960.31
2022-11-29T02:00:41.825Z,960.31
2022-11-29T02:01:13.827Z,960.41
2022-11-29T02:01:51.369Z,960.41
2022-11-29T02:02:16.703Z,960.41
2022-11-29T02:02:47.423Z,960.41
2022-11-29T02:03:16.944Z,960.41
2022-11-29T02:03:47.970Z,960.41
2022-11-29T02:04:19.683Z,960.41
2022-11-29T02:04:49.928Z,960.41
2022-11-29T02:05:20.983Z,960.51
2022-11-29T02:05:51.899Z,960.51
2022-11-29T02:06:22.992Z,960.31
2022-11-29T02:06:53.889Z,960.31
2022-11-29T02:07:24.889Z,960.41
2022-11-29T02:07:56.903Z,960.41
2022-11-29T02:08:26.812Z,960.62
2022-11-29T02:08:57.869Z,960.62
2022-11-29T02:09:28.827Z,960.31
2022-11-29T02:09:59.812Z,960.31
2022-11-29T02:10:30.875Z,960.62
2022-11-29T02:11:01.865Z,960.62
2022-11-29T02:11:32.822Z,960.51
2022-11-29T02:12:04.106Z,960.72
2022-11-29T02:12:34.793Z,960.72
2022-11-29T02:13:06.837Z,960.51
2022-11-29T02:13:36.830Z,960.51
2022-11-29T02:14:07.927Z,960.41
2022-11-29T02:14:38.805Z,960.41
2022-11-29T02:15:22.272Z,960.41
2022-11-29T02:15:40.900Z,960.41
2022-11-29T02:16:12.033Z,960.51
2022-11-29T02:16:42.905Z,960.51
2022-11-29T02:17:13.815Z,960.41
2022-11-29T02:17:44.812Z,960.41
2022-11-29T02:18:16.809Z,960.41
2022-11-29T02:18:46.812Z,960.41
2022-11-29T02:19:17.812Z,960.41
2022-11-29T02:19:48.810Z,960.41
2022-11-29T02:20:19.878Z,960.41
2022-11-29T02:20:50.817Z,960.41
2022-11-29T02:21:21.854Z,960.31
2022-11-29T02:21:52.816Z,960.31
2022-11-29T02:22:23.784Z,960.62
2022-11-29T02:22:54.796Z,960.62
2022-11-29T02:23:26.815Z,960.51
2022-11-29T02:23:56.877Z,960.51
2022-11-29T02:24:27.809Z,960.72
2022-11-29T02:24:58.896Z,960.72
2022-11-29T02:25:29.795Z,960.41
2022-11-29T02:26:00.990Z,960.41
2022-11-29T02:26:31.861Z,960.62
2022-11-29T02:27:02.939Z,960.41
2022-11-29T02:27:33.797Z,960.41
2022-11-29T02:28:04.793Z,960.51
2022-11-29T02:28:36.840Z,960.51
2022-11-29T02:29:06.797Z,960.31
2022-11-29T02:29:37.813Z,960.31
2022-11-29T02:30:21.283Z,960.62
2022-11-29T02:30:39.892Z,960.62
2022-11-29T02:31:11.375Z,960.51
2022-11-29T02:31:41.933Z,960.51
2022-11-29T02:32:12.999Z,960.51
2022-11-29T02:32:44.110Z,960.51
2022-11-29T02:33:14.788Z,960.62
2022-11-29T02:33:46.809Z,960.62
2022-11-29T02:34:17.153Z,960.31
2022-11-29T02:34:47.899Z,960.31
2022-11-29T02:35:24.014Z,960.62
2022-11-29T02:35:49.814Z,960.62
2022-11-29T02:36:20.817Z,960.31
2022-11-29T02:36:52.482Z,960.31
2022-11-29T02:37:22.972Z,960.41
2022-11-29T02:37:53.803Z,960.41
2022-11-29T02:38:24.909Z,960.51
2022-11-29T02:38:56.787Z,960.51
2022-11-29T02:39:26.887Z,960.41
2022-11-29T02:39:57.815Z,960.41
2022-11-29T02:40:28.854Z,960.51
2022-11-29T02:40:59.801Z,960.51
2022-11-29T02:41:30.989Z,960.41
2022-11-29T02:42:01.896Z,960.41
2022-11-29T02:42:32.809Z,960.51
2022-11-29T02:43:03.826Z,960.41
2022-11-29T02:43:34.812Z,960.41
2022-11-29T02:44:06.814Z,960.41
2022-11-29T02:44:36.802Z,960.41
2022-11-29T02:45:20.125Z,960.51
2022-11-29T02:45:38.806Z,960.51
2022-11-29T02:46:09.836Z,960.51
2022-11-29T02:46:40.790Z,960.51
2022-11-29T02:47:11.804Z,960.51
2022-11-29T02:47:42.816Z,960.51
2022-11-29T02:48:13.840Z,960.41
2022-11-29T02:48:44.789Z,960.41
2022-11-29T02:49:16.795Z,960.62
2022-11-29T02:49:46.788Z,960.62
2022-11-29T02:50:17.787Z,960.51
2022-11-29T02:50:48.813Z,960.51
2022-11-29T02:51:19.853Z,960.41
2022-11-29T02:51:50.804Z,960.41
2022-11-29T02:52:21.794Z,960.62
2022-11-29T02:52:52.814Z,960.62
2022-11-29T02:53:23.811Z,960.41
2022-11-29T02:53:54.889Z,960.41
2022-11-29T02:54:26.784Z,960.41
2022-11-29T02:54:56.853Z,960.41
2022-11-29T02:55:27.799Z,960.51
2022-11-29T02:55:58.811Z,960.51
2022-11-29T02:56:29.834Z,960.62
2022-11-29T02:57:00.970Z,960.62
2022-11-29T02:57:31.796Z,960.41
2022-11-29T02:58:02.919Z,960.62
2022-11-29T02:58:33.852Z,960.62
2022-11-29T02:59:04.793Z,960.41
2022-11-29T02:59:36.774Z,960.41
2022-11-29T03:00:19.170Z,960.51
2022-11-29T03:00:37.782Z,960.51
2022-11-29T03:01:09.013Z,960.31
2022-11-29T03:01:39.833Z,960.31
2022-11-29T03:02:10.849Z,960.51
2022-11-29T03:02:41.896Z,960.51
2022-11-29T03:03:12.846Z,960.51
2022-11-29T03:03:43.828Z,960.51
2022-11-29T03:04:14.813Z,960.51
2022-11-29T03:04:47.092Z,960.51
2022-11-29T03:05:16.855Z,960.62
2022-11-29T03:05:47.802Z,960.62
2022-11-29T03:06:18.800Z,960.51
2022-11-29T03:06:49.851Z,960.51
2022-11-29T03:07:20.842Z,960.51
2022-11-29T03:07:51.893Z,960.51
2022-11-29T03:08:22.787Z,960.62
2022-11-29T03:08:53.862Z,960.62
2022-11-29T03:09:24.782Z,960.72
2022-11-29T03:09:56.832Z,960.72
2022-11-29T03:10:26.785Z,960.72
2022-11-29T03:10:57.831Z,960.72
2022-11-29T03:11:28.839Z,960.62
2022-11-29T03:11:59.779Z,960.62
2022-11-29T03:12:30.794Z,960.62
2022-11-29T03:13:01.881Z,960.62
2022-11-29T03:13:32.827Z,960.62
2022-11-29T03:14:03.892Z,960.62
2022-11-29T03:14:34.837Z,960.62
2022-11-29T03:15:19.106Z,960.62
2022-11-29T03:15:36.844Z,960.62
2022-11-29T03:16:07.874Z,960.72
2022-11-29T03:16:42.980Z,960.72
2022-11-29T03:17:09.799Z,960.72
2022-11-29T03:17:40.826Z,960.72
2022-11-29T03:18:11.804Z,960.51
2022-11-29T03:18:42.802Z,960.51
2022-11-29T03:19:13.815Z,960.41
2022-11-29T03:19:44.789Z,960.41
2022-11-29T03:20:16.788Z,960.72
2022-11-29T03:20:46.773Z,960.72
2022-11-29T03:21:17.849Z,960.51
2022-11-29T03:21:48.791Z,960.51
2022-11-29T03:22:19.870Z,960.62
2022-11-29T03:22:50.797Z,960.62
2022-11-29T03:23:21.775Z,960.72
2022-11-29T03:23:52.833Z,960.72
2022-11-29T03:24:23.784Z,960.62
2022-11-29T03:24:54.783Z,960.62
2022-11-29T03:25:26.769Z,960.72
2022-11-29T03:25:56.772Z,960.72
2022-11-29T03:26:27.826Z,960.62
2022-11-29T03:26:58.790Z,960.62
2022-11-29T03:27:29.849Z,960.72
2022-11-29T03:28:00.975Z,960.72
2022-11-29T03:28:31.761Z,960.72
2022-11-29T03:29:03.032Z,960.72
2022-11-29T03:29:33.854Z,960.72
2022-11-29T03:30:17.341Z,960.72
2022-11-29T03:30:36.832Z,960.72
2022-11-29T03:31:07.068Z,960.72
2022-11-29T03:31:37.855Z,960.72
2022-11-29T03:32:08.922Z,960.82
2022-11-29T03:32:39.876Z,960.82
2022-11-29T03:33:11.280Z,960.72
2022-11-29T03:33:42.410Z,960.72
2022-11-29T03:34:12.850Z,960.72
2022-11-29T03:34:44.382Z,960.72
2022-11-29T03:35:25.091Z,960.62
2022-11-29T03:35:47.387Z,960.62
2022-11-29T03:36:16.914Z,960.82
2022-11-29T03:36:47.941Z,960.82
2022-11-29T03:37:18.912Z,960.62
2022-11-29T03:37:49.831Z,960.62
2022-11-29T03:38:20.880Z,960.82
2022-11-29T03:38:51.846Z,960.82
2022-11-29T03:39:22.807Z,960.72
2022-11-29T03:39:53.890Z,960.72
2022-11-29T03:40:24.838Z,960.72
2022-11-29T03:40:56.769Z,960.72
2022-11-29T03:41:26.773Z,960.72
2022-11-29T03:41:57.767Z,960.72
2022-11-29T03:42:28.781Z,961.02
2022-11-29T03:42:59.791Z,961.02
2022-11-29T03:43:30.761Z,960.72
2022-11-29T03:44:01.825Z,960.72
2022-11-29T03:44:32.783Z,960.92
2022-11-29T03:45:16.159Z,960.82
2022-11-29T03:45:34.765Z,960.82
2022-11-29T03:46:06.863Z,960.72
2022-11-29T03:46:36.805Z,960.72
2022-11-29T03:47:07.888Z,960.82
2022-11-29T03:47:38.767Z,960.82
2022-11-29T03:48:09.911Z,960.72
2022-11-29T03:48:40.820Z,960.72
2022-11-29T03:49:11.826Z,960.92
2022-11-29T03:49:42.822Z,960.92
2022-11-29T03:50:13.770Z,960.82
2022-11-29T03:50:44.787Z,960.82
2022-11-29T03:51:16.791Z,960.92
2022-11-29T03:51:46.780Z,960.92
2022-11-29T03:52:17.771Z,960.92
2022-11-29T03:52:48.791Z,960.92
2022-11-29T03:53:19.758Z,960.92
2022-11-29T03:53:50.773Z,960.92
2022-11-29T03:54:21.775Z,960.72
2022-11-29T03:54:52.801Z,960.72
2022-11-29T03:55:23.793Z,960.62
2022-11-29T03:55:54.828Z,960.62
2022-11-29T03:56:26.793Z,960.92
2022-11-29T03:56:56.779Z,960.92
2022-11-29T03:57:27.770Z,960.72
2022-11-29T03:57:58.771Z,960.72
2022-11-29T03:58:29.789Z,960.82
2022-11-29T03:59:00.952Z,960.82
2022-11-29T03:59:31.784Z,960.82
2022-11-29T04:00:15.370Z,960.72
2022-11-29T04:00:33.786Z,960.72
2022-11-29T04:01:04.840Z,960.72
2022-11-29T04:01:36.842Z,960.72
2022-11-29T04:02:06.837Z,960.72
2022-11-29T04:02:37.808Z,960.72
2022-11-29T04:03:08.801Z,960.82
2022-11-29T04:03:39.794Z,960.82
2022-11-29T04:04:10.785Z,960.82
2022-11-29T04:04:41.969Z,960.82
2022-11-29T04:05:12.782Z,960.72
2022-11-29T04:05:43.826Z,960.72
2022-11-29T04:06:14.770Z,960.82
2022-11-29T04:06:46.816Z,960.82
2022-11-29T04:07:16.987Z,960.92
2022-11-29T04:07:47.833Z,960.92
2022-11-29T04:08:18.800Z,960.82
2022-11-29T04:08:49.854Z,960.82
2022-11-29T04:09:20.773Z,961.02
2022-11-29T04:09:51.753Z,961.02
2022-11-29T04:10:22.812Z,961.12
2022-11-29T04:10:53.858Z,961.12
2022-11-29T04:11:24.838Z,960.82
2022-11-29T04:11:56.770Z,960.82
2022-11-29T04:12:26.770Z,960.72
2022-11-29T04:12:57.786Z,960.72
2022-11-29T04:13:28.782Z,960.82
2022-11-29T04:14:00.057Z,960.82
2022-11-29T04:14:30.760Z,960.92
2022-11-29T04:15:15.552Z,960.92
2022-11-29T04:15:32.763Z,960.72
2022-11-29T04:16:03.863Z,960.72
2022-11-29T04:16:34.811Z,960.72
2022-11-29T04:17:06.910Z,960.72
2022-11-29T04:17:36.779Z,960.72
2022-11-29T04:18:07.832Z,960.82
2022-11-29T04:18:39.909Z,960.82
2022-11-29T04:19:09.827Z,960.92
2022-11-29T04:19:40.785Z,960.92
2022-11-29T04:20:11.911Z,960.92
2022-11-29T04:20:46.827Z,960.92
2022-11-29T04:21:13.795Z,960.72
2022-11-29T04:21:44.797Z,960.72
2022-11-29T04:22:16.813Z,960.62
2022-11-29T04:22:46.773Z,960.62
2022-11-29T04:23:17.781Z,960.92
2022-11-29T04:23:48.775Z,960.92
2022-11-29T04:24:19.815Z,960.82
2022-11-29T04:24:50.784Z,960.82
2022-11-29T04:25:21.772Z,960.82
2022-11-29T04:25:52.817Z,960.82
2022-11-29T04:26:23.811Z,960.72
2022-11-29T04:26:54.770Z,960.72
2022-11-29T04:27:26.747Z,961.02
2022-11-29T04:27:56.761Z,961.02
2022-11-29T04:28:27.836Z,961.02
2022-11-29T04:28:58.766Z,961.02
2022-11-29T04:29:29.808Z,960.72
2022-11-29T04:30:13.350Z,960.72
2022-11-29T04:30:31.805Z,960.72
2022-11-29T04:31:02.982Z,960.62
2022-11-29T04:31:34.051Z,960.62
2022-11-29T04:32:04.972Z,960.82
2022-11-29T04:32:37.406Z,960.82
2022-11-29T04:33:07.022Z,960.62
2022-11-29T04:33:37.839Z,960.62
2022-11-29T04:34:08.848Z,960.92
2022-11-29T04:34:40.487Z,960.92
2022-11-29T04:35:13.445Z,960.82
2022-11-29T04:35:41.830Z,960.82
2022-11-29T04:36:12.814Z,960.92
2022-11-29T04:36:43.888Z,960.92
2022-11-29T04:37:14.893Z,960.72
2022-11-29T04:37:47.062Z,960.72
2022-11-29T04:38:16.844Z,960.82
2022-11-29T04:38:47.958Z,960.82
2022-11-29T04:39:18.972Z,960.82
2022-11-29T04:39:49.830Z,960.82
2022-11-29T04:40:20.837Z,960.72
2022-11-29T04:40:51.820Z,960.72
2022-11-29T04:41:22.792Z,960.82
2022-11-29T04:41:53.861Z,960.82
2022-11-29T04:42:24.788Z,960.82
2022-11-29T04:42:56.850Z,960.82
2022-11-29T04:43:26.758Z,960.92
2022-11-29T04:43:57.789Z,960.92
2022-11-29T04:44:28.813Z,960.82
2022-11-29T04:44:59.853Z,960.82
2022-11-29T04:45:43.070Z,960.92
2022-11-29T04:46:01.822Z,960.92
2022-11-29T04:46:32.869Z,960.92
2022-11-29T04:47:03.797Z,960.82
2022-11-29T04:47:34.752Z,960.82
2022-11-29T04:48:06.765Z,961.02
2022-11-29T04:48:36.761Z,961.02
2022-11-29T04:49:07.763Z,961.02
2022-11-29T04:49:38.796Z,961.02
2022-11-29T04:50:09.780Z,960.92
2022-11-29T04:50:40.750Z,960.92
2022-11-29T04:51:12.665Z,960.82
2022-11-29T04:51:42.747Z,960.82
2022-11-29T04:52:13.781Z,960.92
2022-11-29T04:52:44.835Z,960.92
2022-11-29T04:53:16.775Z,960.82
2022-11-29T04:53:46.760Z,960.82
2022-11-29T04:54:17.776Z,961.02
2022-11-29T04:54:48.765Z,961.02
2022-11-29T04:55:26.173Z,960.62
2022-11-29T04:55:50.802Z,960.62
2022-11-29T04:56:21.762Z,960.92
2022-11-29T04:56:52.769Z,960.92
2022-11-29T04:57:24.736Z,960.72
2022-11-29T04:57:54.754Z,960.72
2022-11-29T04:58:26.754Z,961.12
2022-11-29T04:58:56.797Z,961.12
2022-11-29T04:59:27.759Z,961.12
2022-11-29T04:59:58.781Z,961.12
2022-11-29T05:00:42.119Z,960.92
2022-11-29T05:01:00.938Z,960.92
2022-11-29T05:01:31.919Z,961.12
2022-11-29T05:02:02.986Z,961.12
2022-11-29T05:02:33.807Z,961.12
2022-11-29T05:03:04.920Z,961.02
2022-11-29T05:03:36.747Z,961.02
2022-11-29T05:04:06.796Z,961.02
2022-11-29T05:04:37.823Z,961.02
2022-11-29T05:05:08.781Z,961.02
2022-11-29T05:05:39.759Z,961.02
2022-11-29T05:06:10.791Z,961.02
2022-11-29T05:06:41.758Z,961.02
2022-11-29T05:07:12.755Z,961.02
2022-11-29T05:07:43.871Z,961.02
2022-11-29T05:08:14.828Z,961.12
2022-11-29T05:08:46.764Z,961.12
2022-11-29T05:09:16.771Z,961.02
2022-11-29T05:09:47.757Z,961.02
2022-11-29T05:10:18.782Z,961.02
2022-11-29T05:10:49.793Z,961.02
2022-11-29T05:11:26.294Z,961.02
2022-11-29T05:11:51.777Z,961.02
2022-11-29T05:12:22.871Z,961.12
2022-11-29T05:12:53.813Z,961.12
2022-11-29T05:13:24.756Z,960.92
2022-11-29T05:13:56.754Z,960.92
2022-11-29T05:14:26.752Z,961.02
2022-11-29T05:14:58.654Z,961.02
2022-11-29T05:15:41.145Z,961.12
2022-11-29T05:15:59.908Z,961.12
2022-11-29T05:16:30.749Z,960.92
2022-11-29T05:17:01.779Z,960.92
2022-11-29T05:17:32.759Z,960.92
2022-11-29T05:18:03.861Z,961.02
2022-11-29T05:18:34.804Z,961.02
2022-11-29T05:19:10.661Z,961.12
2022-11-29T05:19:36.750Z,961.12
2022-11-29T05:20:07.765Z,961.02
2022-11-29T05:20:38.754Z,961.02
2022-11-29T05:21:09.770Z,961.22
2022-11-29T05:21:40.761Z,961.22
2022-11-29T05:22:11.814Z,961.22
2022-11-29T05:22:42.744Z,961.22
2022-11-29T05:23:13.767Z,961.12
2022-11-29T05:23:44.749Z,961.12
2022-11-29T05:24:16.751Z,961.12
2022-11-29T05:24:47.131Z,961.12
2022-11-29T05:25:17.733Z,961.02
2022-11-29T05:25:48.837Z,961.02
2022-11-29T05:26:19.756Z,961.02
2022-11-29T05:26:50.983Z,961.02
2022-11-29T05:27:21.750Z,961.12
2022-11-29T05:27:52.748Z,961.12
2022-11-29T05:28:24.690Z,961.22
2022-11-29T05:28:54.736Z,961.22
2022-11-29T05:29:26.796Z,961.12
2022-11-29T05:29:56.803Z,961.12
2022-11-29T05:30:40.320Z,961.12
2022-11-29T05:30:58.994Z,961.12
2022-11-29T05:31:29.930Z,960.92
2022-11-29T05:32:01.054Z,960.92
2022-11-29T05:32:31.879Z,961.12
2022-11-29T05:33:02.983Z,961.02
2022-11-29T05:33:33.920Z,961.02
2022-11-29T05:34:04.913Z,961.33
2022-11-29T05:34:43.193Z,961.33
2022-11-29T05:35:10.614Z,961.12
2022-11-29T05:35:38.222Z,961.12
2022-11-29T05:36:08.913Z,961.22
2022-11-29T05:36:39.861Z,961.22
2022-11-29T05:37:10.883Z,961.22
2022-11-29T05:37:41.798Z,961.22
2022-11-29T05:38:13.025Z,961.02
2022-11-29T05:38:43.932Z,961.02
2022-11-29T05:39:14.908Z,961.12
2022-11-29T05:39:46.796Z,961.12
2022-11-29T05:40:16.860Z,961.22
2022-11-29T05:40:47.735Z,961.22
2022-11-29T05:41:18.856Z,961.43
2022-11-29T05:41:49.767Z,961.43
2022-11-29T05:42:20.751Z,961.22
2022-11-29T05:42:51.853Z,961.22
2022-11-29T05:43:22.751Z,961.33
2022-11-29T05:43:53.840Z,961.33
2022-11-29T05:44:24.749Z,961.12
2022-11-29T05:44:56.738Z,961.12
2022-11-29T05:45:39.065Z,961.02
2022-11-29T05:45:57.742Z,961.02
2022-11-29T05:46:28.875Z,961.33
2022-11-29T05:46:59.757Z,961.33
2022-11-29T05:47:31.684Z,961.33
2022-11-29T05:48:01.771Z,961.33
2022-11-29T05:48:32.762Z,961.22
2022-11-29T05:49:03.846Z,961.22
2022-11-29T05:49:34.736Z,961.22
2022-11-29T05:50:06.848Z,961.22
2022-11-29T05:50:36.813Z,961.22
2022-11-29T05:51:07.761Z,961.12
2022-11-29T05:51:39.031Z,961.12
2022-11-29T05:52:09.751Z,961.22
2022-11-29T05:52:40.779Z,961.22
2022-11-29T05:53:11.783Z,961.22
2022-11-29T05:53:42.735Z,961.22
2022-11-29T05:54:13.856Z,961.33
2022-11-29T05:54:45.127Z,961.33
2022-11-29T05:55:16.761Z,961.33
2022-11-29T05:55:46.775Z,961.33
2022-11-29T05:56:17.804Z,961.12
2022-11-29T05:56:48.775Z,961.12
2022-11-29T05:57:20.683Z,961.12
2022-11-29T05:57:50.728Z,961.12
2022-11-29T05:58:25.697Z,961.22
2022-11-29T05:58:52.794Z,961.22
2022-11-29T05:59:23.793Z,961.22
2022-11-29T05:59:54.749Z,961.22
2022-11-29T06:00:39.034Z,961.43
2022-11-29T06:00:56.731Z,961.43
2022-11-29T06:01:27.781Z,961.12
2022-11-29T06:01:58.872Z,961.12
2022-11-29T06:02:29.843Z,961.33
2022-11-29T06:03:01.023Z,961.33
2022-11-29T06:03:32.034Z,961.22
2022-11-29T06:04:02.999Z,961.43
2022-11-29T06:04:33.764Z,961.43
2022-11-29T06:05:04.761Z,961.33
2022-11-29T06:05:36.830Z,961.33
2022-11-29T06:06:06.874Z,961.33
2022-11-29T06:06:38.750Z,961.33
2022-11-29T06:07:08.824Z,961.43
2022-11-29T06:07:39.841Z,961.43
2022-11-29T06:08:10.766Z,961.33
2022-11-29T06:08:41.807Z,961.33
2022-11-29T06:09:12.834Z,961.43
2022-11-29T06:09:43.854Z,961.43
2022-11-29T06:10:15.012Z,961.33
2022-11-29T06:10:46.782Z,961.33
2022-11-29T06:11:16.784Z,961.53
2022-11-29T06:11:47.777Z,961.53
2022-11-29T06:12:21.241Z,961.53
2022-11-29T06:12:49.760Z,961.53
2022-11-29T06:13:20.768Z,961.12
2022-11-29T06:13:51.831Z,961.12
2022-11-29T06:14:22.833Z,961.33
2022-11-29T06:14:53.810Z,961.33
2022-11-29T06:15:37.186Z,961.43
2022-11-29T06:15:56.976Z,961.43
2022-11-29T06:16:26.747Z,961.43
2022-11-29T06:16:58.601Z,961.43
2022-11-29T06:17:28.751Z,961.43
2022-11-29T06:17:59.802Z,961.43
2022-11-29T06:18:30.742Z,961.53
2022-11-29T06:19:01.765Z,961.53
2022-11-29T06:19:32.736Z,961.43
2022-11-29T06:20:03.831Z,961.33
2022-11-29T06:20:34.754Z,961.33
2022-11-29T06:21:06.899Z,961.33
2022-11-29T06:21:36.784Z,961.33
2022-11-29T06:22:07.787Z,961.53
2022-11-29T06:22:38.734Z,961.53
2022-11-29T06:23:09.870Z,961.33
2022-11-29T06:23:40.742Z,961.33
2022-11-29T06:24:12.725Z,961.43
2022-11-29T06:24:43.090Z,961.43
2022-11-29T06:25:13.864Z,961.43
2022-11-29T06:25:44.815Z,961.43
2022-11-29T06:26:16.734Z,961.43
2022-11-29T06:26:46.754Z,961.43